Time;durP1;ratioP1;P1;durP2;ratioP2;P2;SDS_P1;SDS_P2;PMS_P1;PMS_P2;Temp;Humidity;BMP_temperature;BMP_pressure;BME280_temperature;BME280_humidity;BME280_pressure;Samples;Min_cycle;Max_cycle;Signal;HPM_P1;HPM_P2
2024/04/15 00:02:12;;;;;;;13.40;5.43;;;22.40;51.20;;;;;;5278392;27;20475;-82
2024/04/15 00:04:39;;;;;;;12.50;4.90;;;22.30;51.20;;;;;;5274176;27;20534;-82
2024/04/15 00:07:09;;;;;;;10.20;5.40;;;22.30;51.30;;;;;;5279242;27;20494;-81
2024/04/15 00:09:36;;;;;;;9.50;5.40;;;22.30;51.30;;;;;;5278758;27;20487;-82
2024/04/15 00:12:07;;;;;;;9.67;5.30;;;22.20;51.20;;;;;;5278144;27;20599;-83
2024/04/15 00:14:34;;;;;;;6.93;4.80;;;22.20;51.40;;;;;;5273278;27;20544;-82
2024/04/15 00:17:07;;;;;;;11.00;4.83;;;22.20;51.40;;;;;;5278100;27;20545;-82
2024/04/15 00:19:34;;;;;;;6.87;3.93;;;22.20;51.10;;;;;;5278325;27;20617;-82
2024/04/15 00:22:04;;;;;;;8.40;4.50;;;22.10;51.10;;;;;;5272531;27;20480;-81
2024/04/15 00:24:31;;;;;;;9.63;4.77;;;22.00;51.00;;;;;;5277338;27;20566;-83
2024/04/15 00:27:01;;;;;;;14.57;5.33;;;22.00;51.20;;;;;;5302946;27;20494;-81
2024/04/15 00:29:29;;;;;;;7.50;4.00;;;21.90;51.10;;;;;;5270273;27;20490;-82
2024/04/15 00:31:59;;;;;;;7.73;4.10;;;21.90;51.10;;;;;;5277812;27;20482;-82
2024/04/15 00:34:29;;;;;;;7.30;4.23;;;21.90;50.90;;;;;;5270890;27;20482;-81
2024/04/15 00:36:59;;;;;;;11.53;4.70;;;21.80;50.90;;;;;;5263748;27;20574;-80
2024/04/15 00:39:26;;;;;;;10.10;4.73;;;21.90;51.20;;;;;;5275466;27;20529;-82
2024/04/15 00:41:56;;;;;;;7.30;4.00;;;21.80;50.80;;;;;;5277050;27;20494;-82
2024/04/15 00:44:30;;;;;;;10.73;4.27;;;21.80;50.90;;;;;;5275958;27;20486;-82
2024/04/15 00:47:00;;;;;;;8.70;4.27;;;21.80;50.70;;;;;;5277012;27;20489;-80
2024/04/15 00:49:32;;;;;;;9.03;4.20;;;21.80;50.70;;;;;;5271530;27;20535;-82
2024/04/15 00:52:02;;;;;;;9.23;3.87;;;21.70;50.70;;;;;;5276532;27;20553;-80
2024/04/15 00:54:29;;;;;;;8.93;4.10;;;21.70;50.70;;;;;;5265196;27;20560;-80
2024/04/15 00:56:59;;;;;;;6.33;3.73;;;21.70;50.70;;;;;;5277094;27;20498;-83
2024/04/15 00:59:27;;;;;;;7.70;3.50;;;21.60;50.70;;;;;;5277008;27;20538;-82
2024/04/15 01:01:56;;;;;;;6.67;3.37;;;21.60;50.70;;;;;;5281646;27;20467;-81
2024/04/15 01:04:24;;;;;;;8.93;3.80;;;21.50;50.60;;;;;;5280239;27;20897;-80
2024/04/15 01:06:57;;;;;;;8.90;4.40;;;21.50;50.70;;;;;;5306087;27;20542;-81
2024/04/15 01:09:24;;;;;;;4.73;3.30;;;21.50;50.70;;;;;;5282435;27;20623;-80
2024/04/15 01:11:54;;;;;;;8.87;3.30;;;21.50;50.70;;;;;;5280822;27;20536;-81
2024/04/15 01:14:22;;;;;;;5.23;3.30;;;21.50;50.50;;;;;;5279786;27;20533;-81
2024/04/15 01:16:52;;;;;;;6.90;3.93;;;21.50;50.80;;;;;;5274506;27;20486;-82
2024/04/15 01:19:19;;;;;;;7.20;4.07;;;21.50;50.70;;;;;;5276692;27;20478;-83
2024/04/15 01:21:49;;;;;;;16.10;3.70;;;21.40;50.70;;;;;;5275453;27;20527;-82
2024/04/15 01:24:19;;;;;;;7.00;3.40;;;21.40;50.80;;;;;;5279896;27;20534;-83
2024/04/15 01:26:49;;;;;;;9.30;3.80;;;21.40;50.80;;;;;;5277253;27;20494;-82
2024/04/15 01:29:16;;;;;;;6.77;3.20;;;21.30;50.60;;;;;;5274733;27;20479;-82
2024/04/15 01:31:46;;;;;;;7.40;3.40;;;21.30;50.60;;;;;;5279598;27;20952;-80
2024/04/15 01:34:14;;;;;;;7.30;3.27;;;21.30;50.70;;;;;;5249686;27;20598;-82
2024/04/15 01:36:44;;;;;;;5.43;3.23;;;21.30;50.60;;;;;;5280388;27;20490;-82
2024/04/15 01:39:11;;;;;;;6.13;3.50;;;21.20;50.50;;;;;;5274120;27;20539;-81
2024/04/15 01:41:44;;;;;;;8.37;3.80;;;21.20;50.40;;;;;;5280610;27;20490;-81
2024/04/15 01:44:11;;;;;;;10.40;3.40;;;21.10;50.40;;;;;;5275754;27;20474;-82
2024/04/15 01:46:41;;;;;;;8.07;2.97;;;21.10;50.40;;;;;;5272076;27;20552;-81
2024/04/15 01:49:08;;;;;;;5.67;2.53;;;21.10;50.50;;;;;;5275607;27;20525;-81
2024/04/15 01:51:38;;;;;;;6.20;2.80;;;21.10;50.40;;;;;;5275782;27;20533;-81
2024/04/15 01:54:05;;;;;;;5.00;2.83;;;21.00;50.30;;;;;;5279141;27;20520;-80
2024/04/15 01:56:35;;;;;;;5.73;2.87;;;21.00;50.30;;;;;;5279236;27;20494;-82
2024/04/15 01:59:06;;;;;;;6.43;2.80;;;20.90;50.10;;;;;;5279605;27;20486;-82
2024/04/15 02:05:24;;;;;;;4.20;2.87;;;20.80;50.50;;;;;;5309026;26;20528;-78
2024/04/15 02:08:08;;;;;;;4.60;3.07;;;20.80;50.60;;;;;;5322602;26;20536;-79
2024/04/15 02:10:39;;;;;;;4.97;2.80;;;20.80;50.60;;;;;;5328828;26;20561;-80
2024/04/15 02:13:06;;;;;;;3.57;2.70;;;20.90;50.60;;;;;;5315970;27;20484;-79
2024/04/15 02:15:39;;;;;;;6.57;2.90;;;20.80;50.80;;;;;;5313298;27;20477;-81
2024/04/15 02:18:06;;;;;;;8.17;2.70;;;20.80;50.80;;;;;;5307649;26;20516;-79
2024/04/15 02:20:36;;;;;;;9.57;3.20;;;20.80;50.70;;;;;;5312278;27;20596;-78
2024/04/15 02:23:03;;;;;;;5.77;2.97;;;20.80;50.90;;;;;;5283743;27;20461;-79
2024/04/15 02:25:33;;;;;;;4.27;2.47;;;20.70;50.70;;;;;;5313167;27;21028;-79
2024/04/15 02:28:01;;;;;;;4.97;2.70;;;20.80;50.70;;;;;;5293190;26;20518;-78
2024/04/15 02:30:30;;;;;;;7.93;3.20;;;20.80;50.90;;;;;;5311503;27;20493;-79
2024/04/15 02:33:00;;;;;;;4.13;2.63;;;20.70;51.00;;;;;;5311409;27;20480;-78
2024/04/15 02:35:30;;;;;;;5.57;2.57;;;20.70;51.10;;;;;;5300190;27;20509;-79
2024/04/15 02:37:58;;;;;;;5.03;2.60;;;20.70;51.20;;;;;;5313065;27;20469;-78
2024/04/15 02:40:28;;;;;;;4.97;2.77;;;20.70;51.00;;;;;;5311157;27;20485;-79
2024/04/15 02:42:55;;;;;;;5.93;2.80;;;20.70;51.20;;;;;;5311960;27;20582;-79
2024/04/15 02:45:25;;;;;;;2.87;2.50;;;20.80;51.40;;;;;;5292158;27;20470;-79
2024/04/15 02:47:53;;;;;;;3.37;2.20;;;20.70;51.10;;;;;;5303268;27;20575;-79
2024/04/15 02:50:25;;;;;;;6.07;3.07;;;20.70;51.20;;;;;;5311621;26;20558;-78
2024/04/15 02:52:53;;;;;;;6.50;2.67;;;20.70;51.80;;;;;;5311834;26;20485;-79
2024/04/15 02:55:23;;;;;;;5.13;2.40;;;20.70;51.40;;;;;;5310151;26;20457;-77
2024/04/15 02:57:50;;;;;;;3.67;2.50;;;20.70;51.40;;;;;;5311859;27;20531;-78
2024/04/15 03:00:21;;;;;;;4.60;2.70;;;20.70;51.60;;;;;;5306442;27;20463;-78
2024/04/15 03:02:49;;;;;;;5.50;2.47;;;20.70;51.40;;;;;;5313840;27;20529;-79
2024/04/15 03:05:20;;;;;;;3.97;2.40;;;20.60;51.40;;;;;;5313924;26;20516;-79
2024/04/15 03:07:50;;;;;;;7.37;2.90;;;20.60;51.50;;;;;;5310805;27;20536;-78
2024/04/15 03:10:20;;;;;;;4.03;2.43;;;20.60;51.70;;;;;;5292668;27;20551;-79
2024/04/15 03:12:51;;;;;;;3.93;2.30;;;20.60;51.80;;;;;;5312399;26;20522;-78
2024/04/15 03:15:21;;;;;;;8.30;2.47;;;20.50;51.50;;;;;;5313892;26;20485;-79
2024/04/15 03:17:50;;;;;;;4.70;2.40;;;20.50;51.60;;;;;;5312561;27;20477;-80
2024/04/15 03:20:20;;;;;;;5.13;2.43;;;20.50;51.60;;;;;;5293144;26;20491;-78
2024/04/15 03:22:51;;;;;;;4.63;2.20;;;20.50;51.80;;;;;;5312131;27;20469;-79
2024/04/15 03:25:21;;;;;;;7.03;2.33;;;20.50;51.60;;;;;;5314350;27;20582;-79
2024/04/15 03:27:48;;;;;;;3.23;2.40;;;20.40;51.60;;;;;;5313766;27;20493;-79
2024/04/15 03:30:18;;;;;;;4.43;2.30;;;20.40;51.50;;;;;;5309504;27;20521;-80
2024/04/15 03:32:46;;;;;;;5.00;2.33;;;20.40;51.60;;;;;;5314057;26;20522;-79
2024/04/15 03:35:17;;;;;;;5.40;2.47;;;20.40;51.60;;;;;;5314136;26;20519;-79
2024/04/15 03:37:47;;;;;;;10.23;2.20;;;20.30;51.30;;;;;;5305317;27;20502;-79
2024/04/15 03:40:20;;;;;;;4.60;2.60;;;20.30;51.60;;;;;;5307162;27;20576;-79
2024/04/15 03:42:50;;;;;;;2.73;2.20;;;20.30;51.60;;;;;;5290423;27;20498;-79
2024/04/15 03:45:18;;;;;;;7.20;2.40;;;20.30;51.80;;;;;;5308828;27;20481;-79
2024/04/15 03:47:48;;;;;;;2.60;2.33;;;20.30;51.60;;;;;;5298974;27;20541;-79
2024/04/15 03:50:15;;;;;;;5.87;2.73;;;20.20;51.50;;;;;;5284524;27;20478;-79
2024/04/15 03:52:45;;;;;;;5.10;2.57;;;20.10;51.70;;;;;;5312389;27;20531;-79
2024/04/15 03:55:12;;;;;;;5.23;2.30;;;20.20;51.90;;;;;;5307347;27;20468;-79
2024/04/15 03:57:46;;;;;;;4.20;2.37;;;20.20;51.70;;;;;;5301002;27;20505;-79
2024/04/15 04:00:13;;;;;;;3.90;2.50;;;20.10;51.60;;;;;;5299600;27;20525;-79
2024/04/15 04:02:43;;;;;;;4.13;2.40;;;20.10;51.60;;;;;;5312565;27;20476;-79
2024/04/15 04:05:11;;;;;;;4.80;2.40;;;20.10;51.80;;;;;;5302051;26;20539;-79
2024/04/15 04:07:41;;;;;;;7.50;2.57;;;20.10;51.60;;;;;;5289704;27;20481;-79
2024/04/15 04:10:11;;;;;;;3.43;1.80;;;20.00;51.50;;;;;;5296034;27;20583;-79
2024/04/15 04:12:38;;;;;;;6.97;2.43;;;20.00;51.60;;;;;;5301111;27;20465;-79
2024/04/15 04:15:11;;;;;;;2.67;1.83;;;20.00;51.60;;;;;;5298106;27;20508;-79
2024/04/15 04:17:39;;;;;;;5.70;2.07;;;20.00;52.30;;;;;;5313902;27;20484;-80
2024/04/15 04:20:09;;;;;;;4.50;2.03;;;20.00;51.70;;;;;;5296680;27;20517;-78
2024/04/15 04:22:37;;;;;;;3.97;2.27;;;20.00;51.50;;;;;;5306865;27;20497;-79
2024/04/15 04:25:07;;;;;;;3.47;2.10;;;19.90;51.30;;;;;;5280310;27;20562;-78
2024/04/15 04:27:35;;;;;;;6.37;2.30;;;19.90;51.50;;;;;;5280127;27;20458;-79
2024/04/15 04:30:05;;;;;;;5.53;2.27;;;19.90;51.50;;;;;;5279733;27;20543;-79
2024/04/15 04:32:38;;;;;;;2.73;1.80;;;19.90;51.40;;;;;;5278888;27;20474;-79
2024/04/15 04:35:09;;;;;;;5.37;2.40;;;19.90;51.40;;;;;;5280786;27;20450;-80
2024/04/15 04:37:37;;;;;;;3.13;1.87;;;19.90;51.30;;;;;;5283401;27;20547;-79
2024/04/15 04:40:11;;;;;;;3.90;2.00;;;19.80;51.20;;;;;;5283946;27;20530;-79
2024/04/15 04:42:42;;;;;;;4.53;2.13;;;19.80;50.90;;;;;;5283617;27;20470;-80
2024/04/15 04:45:12;;;;;;;4.20;2.00;;;19.80;51.10;;;;;;5283181;27;20471;-80
2024/04/15 04:47:42;;;;;;;2.13;1.60;;;19.80;51.20;;;;;;5283389;27;20458;-79
2024/04/15 04:50:12;;;;;;;3.70;2.23;;;19.80;51.00;;;;;;5283468;27;20497;-79
2024/04/15 04:52:39;;;;;;;2.20;1.60;;;19.80;50.90;;;;;;5280402;27;20543;-79
2024/04/15 04:55:09;;;;;;;2.03;1.70;;;19.70;51.00;;;;;;5280213;27;20465;-79
2024/04/15 04:57:37;;;;;;;4.73;1.90;;;19.70;51.10;;;;;;5278653;27;20978;-79
2024/04/15 05:00:09;;;;;;;4.03;1.80;;;19.80;51.10;;;;;;5278753;27;20526;-79
2024/04/15 05:02:37;;;;;;;3.20;1.80;;;19.80;50.90;;;;;;5278826;27;20486;-77
2024/04/15 05:05:10;;;;;;;4.53;1.90;;;19.70;50.80;;;;;;5286935;27;20468;-79
2024/04/15 05:07:37;;;;;;;2.83;1.90;;;19.70;51.00;;;;;;5300041;27;20595;-79
2024/04/15 05:10:08;;;;;;;5.53;1.90;;;19.70;50.90;;;;;;5300143;27;20469;-79
2024/04/15 05:12:36;;;;;;;7.03;1.97;;;19.70;50.90;;;;;;5299093;26;20541;-78
2024/04/15 05:15:06;;;;;;;5.90;1.70;;;19.70;50.90;;;;;;5314688;27;20521;-79
2024/04/15 05:17:33;;;;;;;3.73;1.70;;;19.70;50.90;;;;;;5313632;27;20561;-78
2024/04/15 05:20:03;;;;;;;2.27;1.67;;;19.70;50.70;;;;;;5313482;27;20600;-80
2024/04/15 05:22:36;;;;;;;3.00;1.87;;;19.80;50.80;;;;;;5314128;26;20598;-79
2024/04/15 05:25:06;;;;;;;3.87;2.00;;;19.80;50.60;;;;;;5314795;26;20480;-79
2024/04/15 05:27:36;;;;;;;6.10;1.80;;;19.80;50.40;;;;;;5313267;27;20548;-79
2024/04/15 05:30:05;;;;;;;4.07;1.60;;;19.80;50.30;;;;;;5300402;26;20481;-79
2024/04/15 05:32:36;;;;;;;3.90;1.90;;;19.80;50.30;;;;;;5304085;27;20592;-78
2024/04/15 05:35:04;;;;;;;3.30;1.70;;;19.90;50.30;;;;;;5306947;27;20527;-78
2024/04/15 05:37:37;;;;;;;2.83;1.50;;;19.90;50.20;;;;;;5310550;27;20473;-78
2024/04/15 05:40:05;;;;;;;2.57;2.07;;;19.90;50.20;;;;;;5314077;26;20473;-79
2024/04/15 05:42:35;;;;;;;2.43;1.63;;;19.90;49.90;;;;;;5313079;27;21069;-79
2024/04/15 05:45:03;;;;;;;3.73;2.00;;;19.90;49.70;;;;;;5313712;26;20481;-78
2024/04/15 05:47:33;;;;;;;3.90;1.73;;;19.90;49.70;;;;;;5311727;27;20473;-78
2024/04/15 05:50:01;;;;;;;5.03;1.53;;;19.90;49.60;;;;;;5313487;26;20537;-78
2024/04/15 05:52:32;;;;;;;3.10;1.80;;;19.80;49.70;;;;;;5311259;27;20492;-79
2024/04/15 05:55:03;;;;;;;4.37;1.70;;;19.80;49.80;;;;;;5313536;26;20585;-79
2024/04/15 05:57:33;;;;;;;3.40;2.00;;;19.80;49.70;;;;;;5312239;27;20536;-79
2024/04/15 06:00:01;;;;;;;3.83;2.03;;;19.90;49.70;;;;;;5312753;27;20576;-79
2024/04/15 06:02:31;;;;;;;3.60;1.70;;;19.90;49.50;;;;;;5311560;27;20493;-78
2024/04/15 06:04:58;;;;;;;2.00;1.60;;;19.90;49.40;;;;;;5313467;27;20481;-78
2024/04/15 06:07:29;;;;;;;2.67;1.60;;;19.90;49.60;;;;;;5310459;27;20524;-79
2024/04/15 06:09:56;;;;;;;3.60;1.83;;;20.00;49.90;;;;;;5313476;27;20492;-79
2024/04/15 06:12:29;;;;;;;5.27;1.80;;;20.00;49.60;;;;;;5305088;26;20478;-78
2024/04/15 06:14:56;;;;;;;2.00;1.73;;;20.00;49.40;;;;;;5311765;27;20478;-79
2024/04/15 06:17:26;;;;;;;2.40;1.70;;;20.00;49.50;;;;;;5285850;26;20575;-80
2024/04/15 06:19:54;;;;;;;3.17;2.00;;;20.10;49.60;;;;;;5303990;27;20519;-80
2024/04/15 06:22:24;;;;;;;4.80;2.10;;;20.10;49.40;;;;;;5286743;27;20532;-78
2024/04/15 06:24:52;;;;;;;3.00;1.90;;;20.20;49.30;;;;;;5313543;26;20445;-79
2024/04/15 06:27:22;;;;;;;4.20;1.83;;;20.20;49.40;;;;;;5311920;27;20579;-78
2024/04/15 06:29:52;;;;;;;2.13;1.43;;;20.30;49.20;;;;;;5312272;26;20469;-78
2024/04/15 06:32:22;;;;;;;2.80;1.80;;;20.30;49.30;;;;;;5304921;26;20473;-79
2024/04/15 06:34:50;;;;;;;5.03;1.93;;;20.40;49.30;;;;;;5297279;27;20465;-78
2024/04/15 06:37:20;;;;;;;3.63;1.90;;;20.40;49.20;;;;;;5311252;27;20551;-80
2024/04/15 06:39:48;;;;;;;4.13;1.70;;;20.50;49.20;;;;;;5314660;27;20523;-79
2024/04/15 06:42:18;;;;;;;2.13;1.70;;;20.50;49.00;;;;;;5307336;27;20526;-79
2024/04/15 06:44:46;;;;;;;4.10;1.80;;;20.60;49.20;;;;;;5300310;27;20473;-79
2024/04/15 06:47:18;;;;;;;5.87;1.50;;;20.60;49.20;;;;;;5313901;27;20512;-80
2024/04/15 06:49:46;;;;;;;2.30;1.70;;;20.60;48.90;;;;;;5308400;27;20608;-78
2024/04/15 06:52:16;;;;;;;3.53;2.10;;;20.60;49.10;;;;;;5307875;27;20477;-79
2024/04/15 06:54:43;;;;;;;5.40;1.57;;;20.70;49.10;;;;;;5313838;27;20519;-80
2024/04/15 06:57:13;;;;;;;3.40;2.00;;;20.70;49.10;;;;;;5301724;26;20532;-80
2024/04/15 06:59:41;;;;;;;4.20;1.80;;;20.70;48.90;;;;;;5312578;27;20473;-80
2024/04/15 07:02:13;;;;;;;1.63;1.53;;;20.60;49.20;;;;;;5312409;27;20477;-79
2024/04/15 07:04:44;;;;;;;2.87;1.83;;;20.70;49.20;;;;;;5313096;27;20477;-78
2024/04/15 07:07:14;;;;;;;3.50;2.00;;;20.80;49.20;;;;;;5314554;26;20469;-79
2024/04/15 07:09:41;;;;;;;4.93;1.93;;;20.90;49.00;;;;;;5314274;27;20493;-79
2024/04/15 07:12:13;;;;;;;4.37;2.40;;;20.90;48.90;;;;;;5314234;26;20493;-79
2024/04/15 07:14:40;;;;;;;2.03;1.87;;;21.00;48.90;;;;;;5298372;27;20514;-80
2024/04/15 07:17:10;;;;;;;4.07;2.33;;;21.00;48.80;;;;;;5312525;27;20571;-79
2024/04/15 07:19:38;;;;;;;4.77;2.60;;;21.10;48.80;;;;;;5312653;26;21013;-79
2024/04/15 07:22:10;;;;;;;4.77;2.70;;;21.10;48.40;;;;;;5299233;27;20546;-78
2024/04/15 07:24:38;;;;;;;2.97;2.40;;;21.10;48.40;;;;;;5310737;27;20477;-79
2024/04/15 07:27:08;;;;;;;6.60;3.10;;;21.20;48.20;;;;;;5299023;26;20929;-80
2024/04/15 07:29:36;;;;;;;4.50;2.73;;;21.20;48.40;;;;;;5305431;26;20482;-80
2024/04/15 07:32:06;;;;;;;6.00;2.93;;;21.30;48.10;;;;;;5304960;27;21029;-79
2024/04/15 07:34:34;;;;;;;4.33;2.70;;;21.30;47.90;;;;;;5312716;27;20485;-79
2024/04/15 07:37:07;;;;;;;4.57;2.47;;;21.30;47.80;;;;;;5314943;27;20513;-78
2024/04/15 07:39:37;;;;;;;2.73;2.43;;;21.40;48.20;;;;;;5313656;27;20485;-79
2024/04/15 07:42:09;;;;;;;3.20;2.40;;;21.40;48.10;;;;;;5280434;27;20475;-79
2024/04/15 07:44:37;;;;;;;3.80;2.20;;;21.50;48.00;;;;;;5307083;27;20541;-80
2024/04/15 07:47:07;;;;;;;3.60;2.30;;;21.50;47.90;;;;;;5304437;27;20542;-80
2024/04/15 07:49:35;;;;;;;2.60;2.40;;;21.60;48.00;;;;;;5312082;27;20527;-80
2024/04/15 07:52:05;;;;;;;3.83;2.80;;;21.60;48.00;;;;;;5314434;27;20600;-79
2024/04/15 07:54:36;;;;;;;5.90;2.67;;;21.70;48.00;;;;;;5298905;27;20467;-79
2024/04/15 07:57:07;;;;;;;3.80;2.70;;;21.70;48.10;;;;;;5304522;27;20470;-80
2024/04/15 07:59:35;;;;;;;3.33;2.30;;;21.80;48.10;;;;;;5297601;27;20532;-80
2024/04/15 08:02:05;;;;;;;8.20;2.40;;;22.00;48.10;;;;;;5314629;27;20474;-80
2024/04/15 08:04:35;;;;;;;10.30;2.80;;;22.00;47.90;;;;;;5314298;26;20552;-79
2024/04/15 08:07:06;;;;;;;4.13;2.43;;;22.10;47.90;;;;;;5312849;27;20525;-79
2024/04/15 08:09:43;;;;;;;5.80;2.60;;;22.20;47.80;;;;;;5314049;27;20480;-79
2024/04/15 08:12:13;;;;;;;3.57;2.37;;;22.20;47.80;;;;;;5312925;27;20477;-79
2024/04/15 08:14:41;;;;;;;6.53;2.73;;;22.20;47.70;;;;;;5284667;27;20482;-79
2024/04/15 08:17:14;;;;;;;4.70;2.40;;;22.20;47.70;;;;;;5292713;27;20568;-79
2024/04/15 08:19:42;;;;;;;3.67;1.87;;;22.20;48.50;;;;;;5314288;26;20528;-80
2024/04/15 08:22:12;;;;;;;3.60;2.37;;;22.20;48.20;;;;;;5310944;27;20485;-79
2024/04/15 08:24:49;;;;;;;3.63;2.30;;;22.30;48.10;;;;;;5298702;27;20569;-79
2024/04/15 08:27:17;;;;;;;7.43;2.40;;;22.40;47.90;;;;;;5309296;27;20537;-79
2024/04/15 08:29:47;;;;;;;6.67;2.50;;;22.40;47.80;;;;;;5279434;27;20494;-80
2024/04/15 08:32:14;;;;;;;7.40;2.87;;;22.60;47.80;;;;;;5306343;27;20489;-79
2024/04/15 08:34:44;;;;;;;4.80;2.33;;;22.60;47.80;;;;;;5312331;27;20897;-79
2024/04/15 08:37:12;;;;;;;4.33;2.20;;;22.70;47.70;;;;;;5311857;27;20481;-80
2024/04/15 08:39:45;;;;;;;3.77;2.20;;;22.90;48.10;;;;;;5294220;27;20662;-79
2024/04/15 08:42:15;;;;;;;3.17;2.40;;;23.10;47.80;;;;;;5311657;27;20566;-79
2024/04/15 08:44:45;;;;;;;3.20;2.70;;;23.30;47.60;;;;;;5311374;27;20481;-79
2024/04/15 08:47:15;;;;;;;5.70;2.47;;;23.40;47.30;;;;;;5301478;27;20470;-78
2024/04/15 08:49:46;;;;;;;4.70;2.20;;;23.50;47.20;;;;;;5300932;27;20473;-78
2024/04/15 08:53:00;;;;;;;3.67;2.10;;;23.60;47.00;;;;;;5309482;26;20529;-79
2024/04/15 08:55:33;;;;;;;2.40;2.23;;;23.60;46.70;;;;;;5309152;26;20515;-77
2024/04/15 08:58:03;;;;;;;18.58;2.75;;;23.60;47.60;;;;;;5308199;26;20355;-80
2024/04/15 09:00:30;;;;;;;8.67;2.83;;;23.80;49.60;;;;;;5306860;27;20243;-77
2024/04/15 09:03:03;;;;;;;14.53;2.53;;;24.10;49.30;;;;;;5308248;27;20473;-77
2024/04/15 09:05:31;;;;;;;5.30;2.17;;;24.30;49.50;;;;;;5299771;27;20533;-78
2024/04/15 09:08:01;;;;;;;7.37;2.00;;;24.60;49.50;;;;;;5298857;27;20601;-77
2024/04/15 09:10:29;;;;;;;4.97;2.30;;;24.80;49.60;;;;;;5295126;27;20576;-77
2024/04/15 09:13:03;;;;;;;9.37;2.27;;;24.80;49.60;;;;;;5298829;27;20493;-76
2024/04/15 09:15:31;;;;;;;5.10;1.80;;;24.90;49.90;;;;;;5303351;27;20539;-78
2024/04/15 09:18:01;;;;;;;9.97;2.23;;;24.90;50.10;;;;;;5303125;27;20465;-78
2024/04/15 09:20:28;;;;;;;7.20;2.10;;;24.90;49.80;;;;;;5308728;26;20806;-78
2024/04/15 09:23:18;;;;;;;7.43;2.10;;;25.00;50.00;;;;;;5310375;27;20469;-78
2024/04/15 09:25:46;;;;;;;10.20;2.10;;;25.00;49.70;;;;;;5288046;27;20870;-77
2024/04/15 09:28:19;;;;;;;7.37;2.37;;;25.10;50.00;;;;;;5306177;27;20461;-79
2024/04/15 09:30:46;;;;;;;8.57;2.27;;;25.20;50.00;;;;;;5310500;26;20511;-77
2024/04/15 09:33:21;;;;;;;9.30;2.13;;;25.30;49.70;;;;;;5307629;27;20603;-77
2024/04/15 09:35:48;;;;;;;7.13;1.80;;;25.30;49.60;;;;;;5310946;27;20484;-77
2024/04/15 09:38:18;;;;;;;13.67;2.27;;;25.30;50.00;;;;;;5307583;27;20469;-77
2024/04/15 09:40:45;;;;;;;6.50;2.30;;;25.30;50.60;;;;;;5304084;27;20477;-79
2024/04/15 09:43:19;;;;;;;5.43;2.30;;;25.30;50.50;;;;;;5312451;27;20485;-78
2024/04/15 09:45:46;;;;;;;3.33;2.10;;;25.20;50.70;;;;;;5304527;27;20469;-78
2024/04/15 09:48:22;;;;;;;7.33;2.43;;;25.20;51.00;;;;;;5303977;27;20580;-79
2024/04/15 09:50:52;;;;;;;14.77;2.27;;;25.20;50.80;;;;;;5308985;27;20524;-76
2024/04/15 09:53:29;;;;;;;13.10;2.10;;;25.20;50.40;;;;;;5310360;27;20461;-77
2024/04/15 09:55:59;;;;;;;10.80;2.60;;;25.20;50.40;;;;;;5307915;27;20988;-78
2024/04/15 09:58:32;;;;;;;4.50;2.00;;;25.30;50.80;;;;;;5305945;27;20521;-79
2024/04/15 10:00:59;;;;;;;10.57;2.20;;;25.50;51.00;;;;;;5302229;27;20465;-79
2024/04/15 10:03:31;;;;;;;13.30;2.20;;;25.90;50.80;;;;;;5312079;26;20548;-78
2024/04/15 10:06:01;;;;;;;3.33;1.73;;;26.20;50.80;;;;;;5320285;27;20549;-80
2024/04/15 10:08:30;;;;;;;13.00;2.50;;;26.40;49.90;;;;;;5329467;27;20461;-78
2024/04/15 10:10:58;;;;;;;5.87;2.43;;;26.50;49.40;;;;;;5334847;26;20441;-79
2024/04/15 10:13:27;;;;;;;16.43;2.27;;;26.60;49.20;;;;;;5335135;27;20501;-79
2024/04/15 10:16:01;;;;;;;4.03;2.27;;;26.60;48.80;;;;;;5332596;26;20481;-80
2024/04/15 10:18:31;;;;;;;9.43;2.07;;;26.60;48.70;;;;;;5330141;27;20508;-76
2024/04/15 10:21:07;;;;;;;11.27;2.17;;;26.60;49.00;;;;;;5327206;27;20465;-80
2024/04/15 10:23:37;;;;;;;11.67;2.40;;;26.50;49.00;;;;;;5328829;26;20438;-76
2024/04/15 10:26:06;;;;;;;11.30;2.47;;;26.30;48.50;;;;;;5324621;26;20457;-77
2024/04/15 10:28:36;;;;;;;14.57;2.50;;;26.20;49.00;;;;;;5333469;26;20430;-76
2024/04/15 10:31:06;;;;;;;22.80;3.57;;;26.30;49.10;;;;;;5335536;26;20486;-77
2024/04/15 10:33:36;;;;;;;12.87;2.07;;;26.30;49.50;;;;;;5353275;26;20496;-77
2024/04/15 10:36:04;;;;;;;10.30;2.60;;;26.50;49.00;;;;;;5349730;26;20547;-74
2024/04/15 10:38:34;;;;;;;17.03;2.37;;;26.60;48.70;;;;;;5346954;26;20515;-75
2024/04/15 10:41:04;;;;;;;13.83;2.60;;;26.60;48.30;;;;;;5321113;27;20592;-76
2024/04/15 10:43:36;;;;;;;13.10;2.80;;;26.50;48.20;;;;;;5321966;26;20543;-75
2024/04/15 10:46:06;;;;;;;14.43;2.40;;;26.60;47.90;;;;;;5314367;26;20492;-75
2024/04/15 10:48:38;;;;;;;17.23;2.30;;;26.80;47.20;;;;;;5311942;26;21017;-75
2024/04/15 10:51:05;;;;;;;13.47;2.57;;;27.00;46.80;;;;;;5323557;26;20445;-74
2024/04/15 10:53:35;;;;;;;5.33;2.60;;;27.20;45.30;;;;;;5309819;26;20592;-77
2024/04/15 10:56:02;;;;;;;5.20;2.60;;;27.20;44.30;;;;;;5310253;26;20441;-76
2024/04/15 10:58:33;;;;;;;10.93;2.90;;;27.10;43.50;;;;;;5300580;26;20530;-77
2024/04/15 11:01:00;;;;;;;7.00;2.40;;;27.00;43.30;;;;;;5312066;26;20493;-76
2024/04/15 11:03:33;;;;;;;6.40;2.30;;;26.90;42.90;;;;;;5311609;26;20553;-76
2024/04/15 11:06:01;;;;;;;4.43;2.70;;;27.00;42.90;;;;;;5321376;26;20452;-75
2024/04/15 11:08:31;;;;;;;9.80;2.80;;;27.10;42.40;;;;;;5303599;27;20506;-75
2024/04/15 11:10:58;;;;;;;3.43;2.30;;;27.10;41.90;;;;;;5307284;26;20492;-76
2024/04/15 11:13:28;;;;;;;17.97;3.90;;;27.20;41.20;;;;;;5331625;26;20453;-73
2024/04/15 11:15:56;;;;;;;7.20;2.67;;;27.30;41.00;;;;;;5315319;26;20484;-74
2024/04/15 11:18:26;;;;;;;4.20;2.40;;;27.60;40.10;;;;;;5311509;26;20525;-74
2024/04/15 11:21:02;;;;;;;4.70;2.57;;;27.80;39.20;;;;;;5310893;26;21100;-75
2024/04/15 11:23:32;;;;;;;8.20;2.63;;;28.20;38.80;;;;;;5310277;26;20535;-74
2024/04/15 11:26:00;;;;;;;4.40;1.80;;;28.60;36.90;;;;;;5307693;26;20462;-74
2024/04/15 11:28:30;;;;;;;4.40;2.30;;;28.70;37.20;;;;;;5304469;26;20461;-76
2024/04/15 11:30:58;;;;;;;5.50;2.67;;;29.80;36.10;;;;;;5311121;26;20838;-74
2024/04/15 11:33:29;;;;;;;6.80;2.27;;;30.20;34.50;;;;;;5318750;26;20520;-76
2024/04/15 11:35:56;;;;;;;7.70;2.23;;;30.70;33.20;;;;;;5311972;27;20477;-76
2024/04/15 11:38:29;;;;;;;12.37;1.90;;;30.60;33.00;;;;;;5309490;27;20456;-74
2024/04/15 11:40:57;;;;;;;5.90;1.70;;;30.20;33.10;;;;;;5310942;26;20477;-75
2024/04/15 11:43:27;;;;;;;6.80;2.20;;;29.80;33.20;;;;;;5323359;26;20599;-75
2024/04/15 11:45:57;;;;;;;3.27;1.93;;;29.30;33.50;;;;;;5307008;27;20510;-75
2024/04/15 11:48:27;;;;;;;3.57;2.20;;;28.70;34.30;;;;;;5308957;26;20453;-75
2024/04/15 11:50:54;;;;;;;6.03;1.70;;;28.20;35.60;;;;;;5308058;27;20473;-76
2024/04/15 11:53:24;;;;;;;3.33;2.00;;;27.90;35.40;;;;;;5310495;26;20473;-76
2024/04/15 11:55:54;;;;;;;2.10;1.90;;;27.80;35.70;;;;;;5309322;26;20562;-75
2024/04/15 11:58:25;;;;;;;4.17;1.80;;;27.80;36.10;;;;;;5309433;26;20453;-76
2024/04/15 12:00:52;;;;;;;4.17;1.90;;;27.70;36.00;;;;;;5300135;26;20508;-75
2024/04/15 12:03:25;;;;;;;10.90;2.03;;;27.60;36.20;;;;;;5298166;26;20539;-76
2024/04/15 12:05:56;;;;;;;4.27;1.87;;;27.70;36.60;;;;;;5304064;27;20500;-75
2024/04/15 12:08:24;;;;;;;4.90;1.90;;;27.70;36.60;;;;;;5292177;26;20468;-73
2024/04/15 12:10:57;;;;;;;4.70;1.90;;;27.70;36.70;;;;;;5300771;27;20459;-73
2024/04/15 12:13:24;;;;;;;3.37;1.90;;;27.60;37.20;;;;;;5277763;27;20517;-76
2024/04/15 12:15:55;;;;;;;4.73;1.83;;;27.50;37.80;;;;;;5306749;27;20517;-77
2024/04/15 12:18:22;;;;;;;3.13;2.00;;;27.20;38.60;;;;;;5312286;26;20507;-76
2024/04/15 12:20:52;;;;;;;3.90;1.80;;;27.10;39.30;;;;;;5325196;26;20489;-76
2024/04/15 12:23:20;;;;;;;2.50;1.70;;;27.10;39.80;;;;;;5309785;27;20481;-76
2024/04/15 12:25:50;;;;;;;2.53;1.43;;;27.10;40.10;;;;;;5312543;26;20492;-76
2024/04/15 12:28:20;;;;;;;2.30;1.57;;;26.90;40.40;;;;;;5315950;26;21010;-76
2024/04/15 12:30:50;;;;;;;4.00;1.50;;;26.90;40.80;;;;;;5309191;26;20477;-75
2024/04/15 12:33:18;;;;;;;5.13;1.70;;;26.80;41.30;;;;;;5308856;26;20538;-77
2024/04/15 12:35:49;;;;;;;6.13;1.90;;;26.70;41.70;;;;;;5308623;26;20589;-76
2024/04/15 12:38:17;;;;;;;1.53;1.43;;;26.60;42.00;;;;;;5309661;26;20468;-76
2024/04/15 12:40:47;;;;;;;2.93;2.07;;;26.50;42.40;;;;;;5308577;26;20485;-76
2024/04/15 12:43:15;;;;;;;5.43;1.47;;;26.40;42.70;;;;;;5308768;26;20527;-76
2024/04/15 12:45:47;;;;;;;3.43;1.53;;;26.30;42.80;;;;;;5309180;26;20553;-77
2024/04/15 12:48:16;;;;;;;3.67;1.80;;;26.30;42.90;;;;;;5309605;27;20469;-76
2024/04/15 12:50:48;;;;;;;8.53;1.70;;;26.30;43.20;;;;;;5307844;26;20500;-76
2024/04/15 12:53:15;;;;;;;11.53;2.57;;;26.20;43.40;;;;;;5298076;26;20499;-75
2024/04/15 12:55:46;;;;;;;3.57;1.43;;;26.10;43.60;;;;;;5315778;26;20612;-74
2024/04/15 12:58:13;;;;;;;2.53;1.67;;;26.00;43.50;;;;;;5272218;27;20446;-75
2024/04/15 13:00:46;;;;;;;3.83;1.53;;;26.00;44.00;;;;;;5311748;26;20511;-75
2024/04/15 13:03:14;;;;;;;6.17;1.87;;;26.00;44.00;;;;;;5311837;26;20523;-75